createdAt,value
2018-09-22T00:03:10.473Z,76.24
2018-09-22T00:18:14.297Z,75.41
2018-09-22T00:33:18.131Z,74.45
2018-09-22T00:48:21.973Z,75.32
2018-09-22T01:03:25.822Z,74.41
2018-09-22T01:18:29.631Z,76.45
2018-09-22T01:33:37.627Z,76.56
2018-09-22T01:48:41.409Z,79.00
2018-09-22T02:03:45.282Z,79.30
2018-09-22T02:18:49.080Z,79.29
2018-09-22T02:33:53.169Z,80.89
2018-09-22T02:48:56.968Z,81.64
2018-09-22T03:04:02.826Z,83.02
2018-09-22T03:19:06.656Z,82.62
2018-09-22T03:34:10.471Z,83.65
2018-09-22T03:49:14.297Z,83.05
2018-09-22T04:04:18.224Z,83.34
2018-09-22T04:19:22.028Z,81.85
2018-09-22T04:34:26.166Z,80.25
2018-09-22T04:49:29.964Z,76.06
2018-09-22T05:04:33.748Z,73.16
2018-09-22T05:19:37.475Z,76.21
2018-09-22T05:34:41.289Z,53.69
2018-09-22T05:49:45.088Z,42.63
2018-09-22T06:04:48.894Z,37.67
2018-09-22T06:19:52.690Z,36.19
2018-09-22T06:34:56.497Z,33.88
2018-09-22T06:50:00.587Z,30.91
2018-09-22T07:05:04.460Z,28.62
2018-09-22T07:20:08.343Z,27.70
2018-09-22T07:35:12.201Z,25.00
2018-09-22T07:50:15.989Z,26.33
2018-09-22T08:05:19.819Z,24.69
2018-09-22T08:20:23.616Z,23.94
2018-09-22T08:35:27.445Z,24.50
2018-09-22T08:50:31.368Z,24.65
2018-09-22T09:05:35.171Z,25.88
2018-09-22T09:20:39.221Z,27.24
2018-09-22T09:35:43.027Z,24.88
2018-09-22T09:50:46.840Z,25.04
2018-09-22T10:05:50.722Z,23.11
2018-09-22T10:20:54.527Z,23.49
2018-09-22T10:35:58.357Z,22.40
2018-09-22T10:51:02.219Z,19.42
2018-09-22T11:06:06.665Z,21.53
2018-09-22T11:21:10.552Z,19.08
2018-09-22T11:36:14.407Z,18.29
2018-09-22T11:51:18.213Z,14.78
2018-09-22T12:06:22.094Z,19.96
2018-09-22T12:21:26.039Z,19.72
2018-09-22T12:36:29.851Z,19.14
2018-09-22T12:51:33.785Z,19.60
2018-09-22T13:06:37.658Z,20.97
2018-09-22T13:21:41.523Z,21.37
2018-09-22T13:36:45.375Z,23.20
2018-09-22T13:51:49.202Z,24.37
2018-09-22T14:06:53.067Z,23.97
2018-09-22T14:21:56.985Z,29.09
2018-09-22T14:37:00.851Z,30.37
2018-09-22T14:52:04.698Z,33.44
2018-09-22T15:07:08.566Z,36.40
2018-09-22T15:22:12.474Z,40.13
2018-09-22T15:37:16.336Z,41.71
2018-09-22T15:52:20.234Z,41.41
2018-09-22T16:07:24.205Z,46.48
2018-09-22T16:22:28.031Z,51.32
2018-09-22T16:37:31.905Z,52.83
2018-09-22T16:52:35.716Z,57.08
2018-09-22T17:07:39.613Z,58.32
2018-09-22T17:22:43.561Z,58.01
2018-09-22T17:37:47.447Z,59.67
2018-09-22T17:52:51.309Z,62.01
2018-09-22T18:07:55.186Z,62.08
2018-09-22T18:22:59.012Z,62.84
2018-09-22T18:38:02.867Z,63.63
2018-09-22T18:53:06.890Z,64.73
2018-09-22T19:08:10.758Z,64.80
2018-09-22T19:23:18.580Z,61.97
2018-09-22T19:38:43.879Z,61.78
2018-09-22T19:53:48.728Z,60.44
2018-09-22T20:08:53.265Z,63.85
2018-09-22T20:23:57.197Z,64.53
2018-09-22T20:39:01.112Z,67.42
2018-09-22T20:54:34.694Z,68.41
2018-09-22T21:10:08.756Z,68.51
2018-09-22T21:25:42.890Z,68.76
2018-09-22T21:41:17.832Z,69.85
2018-09-22T21:56:51.877Z,69.97
2018-09-22T22:12:25.838Z,71.99
2018-09-22T22:27:58.873Z,73.11
2018-09-22T22:43:33.032Z,74.46
2018-09-22T22:59:05.840Z,73.86
2018-09-22T23:14:39.975Z,74.53
2018-09-22T23:30:13.098Z,74.07
2018-09-22T23:45:47.165Z,75.04
